sensor_id;sensor_type;location;lat;lon;timestamp;pressure;altitude;pressure_sealevel;temperature;humidity
72558;BME280;60583;50.094;8.748;2023-08-17T00:00:11;100570.09;;;19.68;100.00
72558;BME280;60583;50.094;8.748;2023-08-17T00:02:40;100561.25;;;19.51;100.00
72558;BME280;60583;50.094;8.748;2023-08-17T00:05:06;100571.41;;;19.44;100.00
72558;BME280;60583;50.094;8.748;2023-08-17T00:07:32;100566.53;;;19.41;100.00
72558;BME280;60583;50.094;8.748;2023-08-17T00:09:58;100557.94;;;19.49;100.00
72558;BME280;60583;50.094;8.748;2023-08-17T00:12:24;100572.69;;;19.58;100.00
72558;BME280;60583;50.094;8.748;2023-08-17T00:14:50;100575.84;;;19.50;100.00
72558;BME280;60583;50.094;8.748;2023-08-17T00:17:17;100577.91;;;19.43;100.00
72558;BME280;60583;50.094;8.748;2023-08-17T00:19:42;100564.44;;;19.48;100.00
72558;BME280;60583;50.094;8.748;2023-08-17T00:22:07;100565.13;;;19.60;100.00
72558;BME280;60583;50.094;8.748;2023-08-17T00:24:33;100548.50;;;19.51;100.00
72558;BME280;60583;50.094;8.748;2023-08-17T00:26:58;100560.53;;;19.60;100.00
72558;BME280;60583;50.094;8.748;2023-08-17T00:29:24;100544.38;;;19.44;100.00
72558;BME280;60583;50.094;8.748;2023-08-17T00:31:49;100564.69;;;19.46;100.00
72558;BME280;60583;50.094;8.748;2023-08-17T00:34:15;100564.88;;;19.40;100.00
72558;BME280;60583;50.094;8.748;2023-08-17T00:36:40;100559.75;;;19.38;100.00
72558;BME280;60583;50.094;8.748;2023-08-17T00:39:06;100546.13;;;19.33;100.00
72558;BME280;60583;50.094;8.748;2023-08-17T00:41:31;100560.59;;;19.44;100.00
72558;BME280;60583;50.094;8.748;2023-08-17T00:43:56;100546.50;;;19.42;100.00
72558;BME280;60583;50.094;8.748;2023-08-17T00:46:22;100551.97;;;19.47;100.00
72558;BME280;60583;50.094;8.748;2023-08-17T00:48:49;100564.22;;;19.33;100.00
72558;BME280;60583;50.094;8.748;2023-08-17T00:51:15;100544.03;;;19.19;100.00
72558;BME280;60583;50.094;8.748;2023-08-17T00:53:41;100547.94;;;19.28;100.00
72558;BME280;60583;50.094;8.748;2023-08-17T00:56:07;100552.84;;;19.31;100.00
72558;BME280;60583;50.094;8.748;2023-08-17T00:58:33;100549.81;;;19.27;100.00
72558;BME280;60583;50.094;8.748;2023-08-17T01:00:59;100564.31;;;19.38;100.00
72558;BME280;60583;50.094;8.748;2023-08-17T01:03:28;100548.50;;;19.30;100.00
72558;BME280;60583;50.094;8.748;2023-08-17T01:05:54;100571.94;;;19.41;100.00
72558;BME280;60583;50.094;8.748;2023-08-17T01:08:19;100564.88;;;19.40;100.00
72558;BME280;60583;50.094;8.748;2023-08-17T01:11:04;100558.31;;;19.36;100.00
72558;BME280;60583;50.094;8.748;2023-08-17T01:13:38;100552.84;;;19.31;100.00
72558;BME280;60583;50.094;8.748;2023-08-17T01:16:12;100546.84;;;19.29;100.00
72558;BME280;60583;50.094;8.748;2023-08-17T01:18:40;100526.75;;;19.20;100.00
72558;BME280;60583;50.094;8.748;2023-08-17T01:21:08;100552.19;;;19.24;100.00
72558;BME280;60583;50.094;8.748;2023-08-17T01:23:35;100544.09;;;19.24;100.00
72558;BME280;60583;50.094;8.748;2023-08-17T01:26:00;100534.28;;;19.18;100.00
72558;BME280;60583;50.094;8.748;2023-08-17T01:28:26;100536.50;;;19.21;100.00
72558;BME280;60583;50.094;8.748;2023-08-17T01:31:07;100535.41;;;19.22;100.00
72558;BME280;60583;50.094;8.748;2023-08-17T01:33:40;100528.88;;;19.18;100.00
72558;BME280;60583;50.094;8.748;2023-08-17T01:36:18;100541.97;;;19.26;100.00
72558;BME280;60583;50.094;8.748;2023-08-17T01:38:45;100543.47;;;19.17;100.00
72558;BME280;60583;50.094;8.748;2023-08-17T01:41:12;100535.22;;;19.06;100.00
72558;BME280;60583;50.094;8.748;2023-08-17T01:43:44;100526.53;;;19.04;100.00
72558;BME280;60583;50.094;8.748;2023-08-17T01:46:15;100530.84;;;19.00;100.00
72558;BME280;60583;50.094;8.748;2023-08-17T01:48:41;100528.34;;;18.99;100.00
72558;BME280;60583;50.094;8.748;2023-08-17T01:51:07;100510.88;;;18.85;100.00
72558;BME280;60583;50.094;8.748;2023-08-17T01:53:32;100523.22;;;18.97;100.00
72558;BME280;60583;50.094;8.748;2023-08-17T01:55:58;100532.78;;;19.05;100.00
72558;BME280;60583;50.094;8.748;2023-08-17T01:58:23;100524.03;;;18.98;100.00
72558;BME280;60583;50.094;8.748;2023-08-17T02:00:48;100525.34;;;18.95;100.00
72558;BME280;60583;50.094;8.748;2023-08-17T02:03:14;100510.47;;;18.93;100.00
72558;BME280;60583;50.094;8.748;2023-08-17T02:05:44;100527.03;;;19.01;100.00
72558;BME280;60583;50.094;8.748;2023-08-17T02:08:09;100522.06;;;18.93;100.00
72558;BME280;60583;50.094;8.748;2023-08-17T02:10:35;100499.78;;;18.65;100.00
72558;BME280;60583;50.094;8.748;2023-08-17T02:13:00;100526.06;;;18.69;100.00
72558;BME280;60583;50.094;8.748;2023-08-17T02:15:25;100510.81;;;18.63;100.00
72558;BME280;60583;50.094;8.748;2023-08-17T02:17:51;100525.78;;;18.71;100.00
72558;BME280;60583;50.094;8.748;2023-08-17T02:20:16;100521.06;;;18.78;100.00
72558;BME280;60583;50.094;8.748;2023-08-17T02:22:42;100524.00;;;18.76;100.00
72558;BME280;60583;50.094;8.748;2023-08-17T02:25:07;100513.44;;;18.75;100.00
72558;BME280;60583;50.094;8.748;2023-08-17T02:27:33;100501.03;;;18.57;100.00
72558;BME280;60583;50.094;8.748;2023-08-17T02:29:59;100509.69;;;18.59;100.00
72558;BME280;60583;50.094;8.748;2023-08-17T02:32:24;100517.63;;;18.66;100.00
72558;BME280;60583;50.094;8.748;2023-08-17T02:34:49;100505.69;;;18.62;100.00
72558;BME280;60583;50.094;8.748;2023-08-17T02:37:15;100528.00;;;18.74;100.00
72558;BME280;60583;50.094;8.748;2023-08-17T02:39:40;100519.34;;;18.72;100.00
72558;BME280;60583;50.094;8.748;2023-08-17T02:42:06;100517.75;;;18.76;100.00
72558;BME280;60583;50.094;8.748;2023-08-17T02:44:31;100513.94;;;18.72;100.00
72558;BME280;60583;50.094;8.748;2023-08-17T02:46:56;100500.53;;;18.60;100.00
72558;BME280;60583;50.094;8.748;2023-08-17T02:49:22;100500.53;;;18.60;100.00
72558;BME280;60583;50.094;8.748;2023-08-17T02:51:47;100503.88;;;18.67;100.00
72558;BME280;60583;50.094;8.748;2023-08-17T02:54:13;100507.06;;;18.64;100.00
72558;BME280;60583;50.094;8.748;2023-08-17T02:56:38;100487.44;;;18.52;100.00
72558;BME280;60583;50.094;8.748;2023-08-17T02:59:03;100486.78;;;18.45;100.00
72558;BME280;60583;50.094;8.748;2023-08-17T03:01:29;100482.03;;;18.35;100.00
72558;BME280;60583;50.094;8.748;2023-08-17T03:03:55;100501.03;;;18.57;100.00
72558;BME280;60583;50.094;8.748;2023-08-17T03:06:20;100492.38;;;18.55;100.00
72558;BME280;60583;50.094;8.748;2023-08-17T03:08:46;100461.97;;;18.48;100.00
72558;BME280;60583;50.094;8.748;2023-08-17T03:11:11;100484.81;;;18.57;100.00
72558;BME280;60583;50.094;8.748;2023-08-17T03:13:37;100462.69;;;18.43;100.00
72558;BME280;60583;50.094;8.748;2023-08-17T03:16:02;100480.72;;;18.55;100.00
72558;BME280;60583;50.094;8.748;2023-08-17T03:18:28;100485.66;;;18.58;100.00
72558;BME280;60583;50.094;8.748;2023-08-17T03:20:53;100482.91;;;18.41;100.00
72558;BME280;60583;50.094;8.748;2023-08-17T03:23:18;100489.88;;;18.37;100.00
72558;BME280;60583;50.094;8.748;2023-08-17T03:25:44;100492.66;;;18.42;100.00
72558;BME280;60583;50.094;8.748;2023-08-17T03:28:11;100468.44;;;18.30;100.00
72558;BME280;60583;50.094;8.748;2023-08-17T03:30:36;100503.47;;;18.42;100.00
72558;BME280;60583;50.094;8.748;2023-08-17T03:33:02;100500.53;;;18.27;100.00
72558;BME280;60583;50.094;8.748;2023-08-17T03:35:27;100505.94;;;18.27;100.00
72558;BME280;60583;50.094;8.748;2023-08-17T03:37:53;100506.97;;;18.26;100.00
72558;BME280;60583;50.094;8.748;2023-08-17T03:40:18;100508.16;;;18.30;100.00
72558;BME280;60583;50.094;8.748;2023-08-17T03:42:44;100488.50;;;18.18;100.00
72558;BME280;60583;50.094;8.748;2023-08-17T03:45:09;100485.88;;;18.23;100.00
72558;BME280;60583;50.094;8.748;2023-08-17T03:47:35;100504.28;;;18.42;100.00
72558;BME280;60583;50.094;8.748;2023-08-17T03:50:00;100499.69;;;18.43;100.00
72558;BME280;60583;50.094;8.748;2023-08-17T03:52:25;100505.78;;;18.50;100.00
72558;BME280;60583;50.094;8.748;2023-08-17T03:54:51;100507.22;;;18.41;100.00
72558;BME280;60583;50.094;8.748;2023-08-17T03:57:16;100511.31;;;18.43;100.00
72558;BME280;60583;50.094;8.748;2023-08-17T03:59:41;100513.91;;;18.50;100.00
72558;BME280;60583;50.094;8.748;2023-08-17T04:02:07;100511.81;;;18.40;100.00
72558;BME280;60583;50.094;8.748;2023-08-17T04:04:32;100516.00;;;18.31;100.00
72558;BME280;60583;50.094;8.748;2023-08-17T04:06:58;100516.38;;;18.23;100.00
72558;BME280;60583;50.094;8.748;2023-08-17T04:09:23;100501.34;;;18.11;100.00
72558;BME280;60583;50.094;8.748;2023-08-17T04:11:48;100508.69;;;18.15;100.00
72558;BME280;60583;50.094;8.748;2023-08-17T04:14:14;100520.31;;;18.16;100.00
72558;BME280;60583;50.094;8.748;2023-08-17T04:16:39;100516.56;;;18.17;100.00
72558;BME280;60583;50.094;8.748;2023-08-17T04:19:05;100509.22;;;18.12;100.00
72558;BME280;60583;50.094;8.748;2023-08-17T04:21:30;100525.88;;;18.09;100.00
72558;BME280;60583;50.094;8.748;2023-08-17T04:23:56;100532.09;;;18.10;100.00
72558;BME280;60583;50.094;8.748;2023-08-17T04:26:21;100534.56;;;18.11;100.00
72558;BME280;60583;50.094;8.748;2023-08-17T04:28:46;100542.31;;;18.08;100.00
72558;BME280;60583;50.094;8.748;2023-08-17T04:31:12;100537.50;;;18.10;100.00
72558;BME280;60583;50.094;8.748;2023-08-17T04:33:39;100511.88;;;17.96;100.00
72558;BME280;60583;50.094;8.748;2023-08-17T04:36:04;100535.53;;;18.22;100.00
72558;BME280;60583;50.094;8.748;2023-08-17T04:38:30;100547.00;;;18.29;100.00
72558;BME280;60583;50.094;8.748;2023-08-17T04:40:55;100522.53;;;18.19;100.00
72558;BME280;60583;50.094;8.748;2023-08-17T04:43:21;100545.34;;;18.28;100.00
72558;BME280;60583;50.094;8.748;2023-08-17T04:45:53;100535.06;;;18.25;100.00
72558;BME280;60583;50.094;8.748;2023-08-17T04:48:21;100543.41;;;18.40;100.00
72558;BME280;60583;50.094;8.748;2023-08-17T04:50:46;100545.84;;;18.41;100.00
72558;BME280;60583;50.094;8.748;2023-08-17T04:53:12;100531.84;;;18.28;100.00
72558;BME280;60583;50.094;8.748;2023-08-17T04:55:37;100544.22;;;18.24;100.00
72558;BME280;60583;50.094;8.748;2023-08-17T04:58:03;100539.69;;;18.13;100.00
72558;BME280;60583;50.094;8.748;2023-08-17T05:00:28;100541.84;;;18.27;100.00
72558;BME280;60583;50.094;8.748;2023-08-17T05:02:57;100532.94;;;18.27;100.00
72558;BME280;60583;50.094;8.748;2023-08-17T05:05:23;100558.31;;;18.42;100.00
72558;BME280;60583;50.094;8.748;2023-08-17T05:07:49;100558.41;;;18.48;100.00
72558;BME280;60583;50.094;8.748;2023-08-17T05:10:14;100559.47;;;18.46;100.00
72558;BME280;60583;50.094;8.748;2023-08-17T05:12:39;100564.69;;;18.36;100.00
72558;BME280;60583;50.094;8.748;2023-08-17T05:15:05;100549.63;;;18.24;100.00
72558;BME280;60583;50.094;8.748;2023-08-17T05:17:31;100568.28;;;18.42;100.00
72558;BME280;60583;50.094;8.748;2023-08-17T05:19:56;100560.66;;;18.39;100.00
72558;BME280;60583;50.094;8.748;2023-08-17T05:22:22;100557.41;;;18.37;100.00
72558;BME280;60583;50.094;8.748;2023-08-17T05:24:47;100557.97;;;18.39;100.00
72558;BME280;60583;50.094;8.748;2023-08-17T05:27:13;100557.63;;;18.19;100.00
72558;BME280;60583;50.094;8.748;2023-08-17T05:29:38;100539.06;;;18.22;100.00
72558;BME280;60583;50.094;8.748;2023-08-17T05:32:04;100537.00;;;18.13;100.00
72558;BME280;60583;50.094;8.748;2023-08-17T05:34:29;100542.31;;;18.08;100.00
72558;BME280;60583;50.094;8.748;2023-08-17T05:36:55;100552.31;;;18.24;100.00
72558;BME280;60583;50.094;8.748;2023-08-17T05:39:20;100567.28;;;18.31;100.00
72558;BME280;60583;50.094;8.748;2023-08-17T05:41:45;100560.41;;;18.24;100.00
72558;BME280;60583;50.094;8.748;2023-08-17T05:44:11;100564.00;;;18.13;100.00
72558;BME280;60583;50.094;8.748;2023-08-17T05:46:36;100564.41;;;18.21;100.00
72558;BME280;60583;50.094;8.748;2023-08-17T05:49:02;100570.56;;;18.17;100.00
72558;BME280;60583;50.094;8.748;2023-08-17T05:51:28;100568.03;;;18.27;100.00
72558;BME280;60583;50.094;8.748;2023-08-17T05:53:53;100557.94;;;18.06;100.00
72558;BME280;60583;50.094;8.748;2023-08-17T05:56:19;100574.84;;;18.01;100.00
72558;BME280;60583;50.094;8.748;2023-08-17T05:58:44;100580.59;;;18.05;100.00
72558;BME280;60583;50.094;8.748;2023-08-17T06:01:11;100578.69;;;18.05;100.00
72558;BME280;60583;50.094;8.748;2023-08-17T06:03:37;100576.50;;;18.02;100.00
72558;BME280;60583;50.094;8.748;2023-08-17T06:06:05;100588.88;;;18.15;100.00
72558;BME280;60583;50.094;8.748;2023-08-17T06:08:31;100569.25;;;18.19;100.00
72558;BME280;60583;50.094;8.748;2023-08-17T06:10:56;100563.50;;;18.16;100.00
72558;BME280;60583;50.094;8.748;2023-08-17T06:13:21;100574.25;;;18.27;100.00
72558;BME280;60583;50.094;8.748;2023-08-17T06:15:47;100575.47;;;18.36;100.00
72558;BME280;60583;50.094;8.748;2023-08-17T06:18:12;100577.22;;;18.42;100.00
72558;BME280;60583;50.094;8.748;2023-08-17T06:20:38;100578.59;;;18.45;100.00
72558;BME280;60583;50.094;8.748;2023-08-17T06:23:03;100577.72;;;18.56;100.00
72558;BME280;60583;50.094;8.748;2023-08-17T06:25:29;100595.16;;;18.65;100.00
72558;BME280;60583;50.094;8.748;2023-08-17T06:27:54;100578.63;;;18.62;100.00
72558;BME280;60583;50.094;8.748;2023-08-17T06:30:20;100605.63;;;18.78;100.00
72558;BME280;60583;50.094;8.748;2023-08-17T06:32:46;100614.31;;;18.80;100.00
72558;BME280;60583;50.094;8.748;2023-08-17T06:35:11;100593.69;;;18.74;100.00
72558;BME280;60583;50.094;8.748;2023-08-17T06:37:37;100598.75;;;18.71;100.00
72558;BME280;60583;50.094;8.748;2023-08-17T06:40:03;100582.53;;;18.71;100.00
72558;BME280;60583;50.094;8.748;2023-08-17T06:42:30;100594.66;;;18.85;100.00
72558;BME280;60583;50.094;8.748;2023-08-17T06:44:56;100586.84;;;18.88;100.00
72558;BME280;60583;50.094;8.748;2023-08-17T06:47:21;100584.75;;;18.90;100.00
72558;BME280;60583;50.094;8.748;2023-08-17T06:49:47;100576.72;;;18.95;100.00
72558;BME280;60583;50.094;8.748;2023-08-17T06:52:12;100564.75;;;18.91;100.00
72558;BME280;60583;50.094;8.748;2023-08-17T06:54:38;100579.09;;;18.92;100.00
72558;BME280;60583;50.094;8.748;2023-08-17T06:57:03;100577.19;;;18.92;100.00
72558;BME280;60583;50.094;8.748;2023-08-17T06:59:29;100582.03;;;18.90;100.00
72558;BME280;60583;50.094;8.748;2023-08-17T07:01:54;100580.47;;;18.94;100.00
72558;BME280;60583;50.094;8.748;2023-08-17T07:04:20;100568.00;;;18.93;100.00
72558;BME280;60583;50.094;8.748;2023-08-17T07:06:45;100594.28;;;19.15;100.00
72558;BME280;60583;50.094;8.748;2023-08-17T07:09:11;100574.56;;;18.97;100.00
72558;BME280;60583;50.094;8.748;2023-08-17T07:11:38;100573.28;;;19.22;100.00
72558;BME280;60583;50.094;8.748;2023-08-17T07:14:03;100601.38;;;19.37;100.00
72558;BME280;60583;50.094;8.748;2023-08-17T07:16:29;100590.13;;;19.29;100.00
72558;BME280;60583;50.094;8.748;2023-08-17T07:18:54;100600.31;;;19.38;100.00
72558;BME280;60583;50.094;8.748;2023-08-17T07:21:19;100599.41;;;19.33;100.00
72558;BME280;60583;50.094;8.748;2023-08-17T07:23:45;100603.94;;;19.49;100.00
72558;BME280;60583;50.094;8.748;2023-08-17T07:26:11;100585.06;;;19.54;100.00
72558;BME280;60583;50.094;8.748;2023-08-17T07:28:37;100600.38;;;19.65;100.00
72558;BME280;60583;50.094;8.748;2023-08-17T07:31:02;100596.06;;;19.69;100.00
72558;BME280;60583;50.094;8.748;2023-08-17T07:33:27;100597.16;;;19.68;100.00
72558;BME280;60583;50.094;8.748;2023-08-17T07:35:53;100608.41;;;19.60;100.00
72558;BME280;60583;50.094;8.748;2023-08-17T07:38:21;100605.94;;;19.80;100.00
72558;BME280;60583;50.094;8.748;2023-08-17T07:40:46;100609.44;;;19.76;100.00
72558;BME280;60583;50.094;8.748;2023-08-17T07:43:11;100616.13;;;19.95;100.00
72558;BME280;60583;50.094;8.748;2023-08-17T07:45:37;100600.47;;;19.75;100.00
72558;BME280;60583;50.094;8.748;2023-08-17T07:48:02;100597.09;;;19.63;100.00
72558;BME280;60583;50.094;8.748;2023-08-17T07:50:28;100621.63;;;19.78;100.00
72558;BME280;60583;50.094;8.748;2023-08-17T07:52:53;100616.72;;;19.75;100.00
72558;BME280;60583;50.094;8.748;2023-08-17T07:55:18;100629.00;;;19.83;100.00
72558;BME280;60583;50.094;8.748;2023-08-17T07:57:44;100609.66;;;19.74;100.00
72558;BME280;60583;50.094;8.748;2023-08-17T08:00:09;100608.03;;;19.73;100.00
72558;BME280;60583;50.094;8.748;2023-08-17T08:02:35;100597.78;;;19.75;100.00
72558;BME280;60583;50.094;8.748;2023-08-17T08:05:00;100602.75;;;19.83;100.00
72558;BME280;60583;50.094;8.748;2023-08-17T08:07:26;100586.84;;;19.92;100.00
72558;BME280;60583;50.094;8.748;2023-08-17T08:09:51;100601.13;;;20.09;100.00
72558;BME280;60583;50.094;8.748;2023-08-17T08:12:16;100609.66;;;20.22;100.00
72558;BME280;60583;50.094;8.748;2023-08-17T08:14:42;100598.34;;;20.25;100.00
72558;BME280;60583;50.094;8.748;2023-08-17T08:17:07;100611.56;;;20.49;100.00
72558;BME280;60583;50.094;8.748;2023-08-17T08:19:32;100595.50;;;20.42;100.00
72558;BME280;60583;50.094;8.748;2023-08-17T08:21:58;100591.81;;;20.53;100.00
72558;BME280;60583;50.094;8.748;2023-08-17T08:24:23;100599.19;;;20.63;100.00
72558;BME280;60583;50.094;8.748;2023-08-17T08:26:49;100584.22;;;20.55;100.00
72558;BME280;60583;50.094;8.748;2023-08-17T08:29:16;100590.31;;;20.72;100.00
72558;BME280;60583;50.094;8.748;2023-08-17T08:31:41;100588.59;;;20.98;99.37
72558;BME280;60583;50.094;8.748;2023-08-17T08:34:06;100598.59;;;21.29;96.91
72558;BME280;60583;50.094;8.748;2023-08-17T08:36:32;100602.13;;;21.35;94.05
72558;BME280;60583;50.094;8.748;2023-08-17T08:38:57;100594.16;;;21.13;95.60
72558;BME280;60583;50.094;8.748;2023-08-17T08:41:25;100589.34;;;21.30;95.58
72558;BME280;60583;50.094;8.748;2023-08-17T08:43:51;100596.22;;;21.48;93.94
72558;BME280;60583;50.094;8.748;2023-08-17T08:46:17;100603.06;;;21.60;92.71
72558;BME280;60583;50.094;8.748;2023-08-17T08:48:44;100583.25;;;21.70;93.75
72558;BME280;60583;50.094;8.748;2023-08-17T08:51:12;100583.41;;;22.15;90.17
72558;BME280;60583;50.094;8.748;2023-08-17T08:53:44;100597.28;;;22.34;89.56
72558;BME280;60583;50.094;8.748;2023-08-17T08:56:15;100592.69;;;22.55;87.72
72558;BME280;60583;50.094;8.748;2023-08-17T08:58:45;100604.41;;;22.70;88.44
72558;BME280;60583;50.094;8.748;2023-08-17T09:01:12;100592.94;;;22.53;87.97
72558;BME280;60583;50.094;8.748;2023-08-17T09:03:38;100589.97;;;22.40;87.63
72558;BME280;60583;50.094;8.748;2023-08-17T09:06:04;100584.00;;;22.68;87.20
72558;BME280;60583;50.094;8.748;2023-08-17T09:08:30;100591.59;;;22.66;87.01
72558;BME280;60583;50.094;8.748;2023-08-17T09:10:56;100589.13;;;22.90;86.57
72558;BME280;60583;50.094;8.748;2023-08-17T09:13:21;100581.97;;;23.19;85.10
72558;BME280;60583;50.094;8.748;2023-08-17T09:15:47;100598.81;;;23.46;84.21
72558;BME280;60583;50.094;8.748;2023-08-17T09:18:12;100583.50;;;23.60;81.59
72558;BME280;60583;50.094;8.748;2023-08-17T09:20:39;100600.78;;;23.89;82.38
72558;BME280;60583;50.094;8.748;2023-08-17T09:23:10;100560.34;;;23.63;82.38
72558;BME280;60583;50.094;8.748;2023-08-17T09:25:39;100581.91;;;24.03;80.64
72558;BME280;60583;50.094;8.748;2023-08-17T09:28:12;100581.19;;;23.82;79.95
72558;BME280;60583;50.094;8.748;2023-08-17T09:31:01;100562.81;;;23.54;81.73
72558;BME280;60583;50.094;8.748;2023-08-17T09:33:32;100579.69;;;23.61;82.30
72558;BME280;60583;50.094;8.748;2023-08-17T09:35:59;100570.28;;;23.87;79.64
72558;BME280;60583;50.094;8.748;2023-08-17T09:38:25;100570.69;;;24.09;81.19
72558;BME280;60583;50.094;8.748;2023-08-17T09:40:51;100579.88;;;24.24;79.41
72558;BME280;60583;50.094;8.748;2023-08-17T09:43:17;100568.69;;;24.59;78.12
72558;BME280;60583;50.094;8.748;2023-08-17T09:45:44;100578.56;;;25.12;76.13
72558;BME280;60583;50.094;8.748;2023-08-17T09:48:17;100550.91;;;25.19;76.16
72558;BME280;60583;50.094;8.748;2023-08-17T09:50:43;100581.00;;;25.38;73.50
72558;BME280;60583;50.094;8.748;2023-08-17T09:53:18;100556.84;;;25.50;72.22
72558;BME280;60583;50.094;8.748;2023-08-17T09:55:45;100585.88;;;26.02;70.58
72558;BME280;60583;50.094;8.748;2023-08-17T09:58:11;100575.63;;;26.31;69.21
72558;BME280;60583;50.094;8.748;2023-08-17T10:00:51;100551.00;;;26.31;70.29
72558;BME280;60583;50.094;8.748;2023-08-17T10:03:18;100563.00;;;26.35;70.02
72558;BME280;60583;50.094;8.748;2023-08-17T10:05:47;100542.09;;;26.71;67.49
72558;BME280;60583;50.094;8.748;2023-08-17T10:08:19;100550.06;;;27.00;66.94
72558;BME280;60583;50.094;8.748;2023-08-17T10:10:46;100538.34;;;27.40;66.55
72558;BME280;60583;50.094;8.748;2023-08-17T10:15:45;100530.06;;;27.67;65.14
72558;BME280;60583;50.094;8.748;2023-08-17T10:18:22;100535.88;;;28.46;62.09
72558;BME280;60583;50.094;8.748;2023-08-17T10:20:58;100556.84;;;28.42;61.18
72558;BME280;60583;50.094;8.748;2023-08-17T10:23:27;100546.13;;;28.32;60.58
72558;BME280;60583;50.094;8.748;2023-08-17T10:25:53;100529.97;;;28.83;59.28
72558;BME280;60583;50.094;8.748;2023-08-17T10:28:20;100548.84;;;29.72;56.82
72558;BME280;60583;50.094;8.748;2023-08-17T10:30:46;100534.00;;;29.99;56.20
72558;BME280;60583;50.094;8.748;2023-08-17T10:33:14;100534.84;;;31.26;53.00
72558;BME280;60583;50.094;8.748;2023-08-17T10:35:39;100541.72;;;31.91;51.47
72558;BME280;60583;50.094;8.748;2023-08-17T10:38:05;100528.59;;;31.46;51.48
72558;BME280;60583;50.094;8.748;2023-08-17T10:40:40;100556.13;;;31.96;50.79
72558;BME280;60583;50.094;8.748;2023-08-17T10:43:06;100532.75;;;31.23;50.28
72558;BME280;60583;50.094;8.748;2023-08-17T10:45:34;100542.84;;;31.11;52.80
72558;BME280;60583;50.094;8.748;2023-08-17T10:50:32;100537.78;;;31.50;51.49
72558;BME280;60583;50.094;8.748;2023-08-17T10:53:04;100539.72;;;32.00;50.70
72558;BME280;60583;50.094;8.748;2023-08-17T10:55:44;100533.38;;;30.91;51.71
72558;BME280;60583;50.094;8.748;2023-08-17T10:58:10;100511.88;;;30.67;52.10
72558;BME280;60583;50.094;8.748;2023-08-17T11:00:38;100532.78;;;30.68;53.70
72558;BME280;60583;50.094;8.748;2023-08-17T11:03:04;100548.28;;;31.28;52.61
72558;BME280;60583;50.094;8.748;2023-08-17T11:05:38;100513.25;;;31.58;51.61
72558;BME280;60583;50.094;8.748;2023-08-17T11:08:05;100525.03;;;31.37;50.46
72558;BME280;60583;50.094;8.748;2023-08-17T11:10:31;100546.09;;;31.92;49.64
72558;BME280;60583;50.094;8.748;2023-08-17T11:12:58;100517.09;;;31.86;50.10
72558;BME280;60583;50.094;8.748;2023-08-17T11:15:36;100541.38;;;32.13;51.20
72558;BME280;60583;50.094;8.748;2023-08-17T11:18:08;100528.50;;;31.55;50.83
72558;BME280;60583;50.094;8.748;2023-08-17T11:20:34;100534.00;;;30.88;52.72
72558;BME280;60583;50.094;8.748;2023-08-17T11:23:00;100539.09;;;32.15;49.73
72558;BME280;60583;50.094;8.748;2023-08-17T11:25:26;100540.25;;;32.79;47.69
72558;BME280;60583;50.094;8.748;2023-08-17T11:27:53;100534.66;;;33.61;47.85
72558;BME280;60583;50.094;8.748;2023-08-17T11:30:20;100540.19;;;33.61;46.15
72558;BME280;60583;50.094;8.748;2023-08-17T11:32:46;100517.47;;;33.55;45.67
72558;BME280;60583;50.094;8.748;2023-08-17T11:35:11;100533.78;;;33.84;45.30
72558;BME280;60583;50.094;8.748;2023-08-17T11:37:36;100516.53;;;33.63;45.62
72558;BME280;60583;50.094;8.748;2023-08-17T11:40:02;100503.72;;;33.47;45.54
72558;BME280;60583;50.094;8.748;2023-08-17T11:42:27;100524.16;;;33.42;46.29
72558;BME280;60583;50.094;8.748;2023-08-17T11:44:53;100509.63;;;33.45;46.61
72558;BME280;60583;50.094;8.748;2023-08-17T11:47:18;100504.59;;;33.23;46.27
72558;BME280;60583;50.094;8.748;2023-08-17T11:49:47;100497.75;;;33.57;46.25
72558;BME280;60583;50.094;8.748;2023-08-17T11:52:13;100511.00;;;33.63;46.13
72558;BME280;60583;50.094;8.748;2023-08-17T11:54:41;100504.78;;;32.94;46.25
72558;BME280;60583;50.094;8.748;2023-08-17T11:57:07;100505.38;;;33.11;47.39
72558;BME280;60583;50.094;8.748;2023-08-17T11:59:32;100508.69;;;33.53;46.29
72558;BME280;60583;50.094;8.748;2023-08-17T12:01:59;100493.69;;;31.42;48.61
72558;BME280;60583;50.094;8.748;2023-08-17T12:04:25;100492.88;;;32.12;48.47
72558;BME280;60583;50.094;8.748;2023-08-17T12:06:51;100477.25;;;32.97;46.60
72558;BME280;60583;50.094;8.748;2023-08-17T12:09:17;100480.09;;;33.49;46.54
72558;BME280;60583;50.094;8.748;2023-08-17T12:11:46;100484.47;;;33.62;45.38
72558;BME280;60583;50.094;8.748;2023-08-17T12:14:12;100501.69;;;34.23;44.19
72558;BME280;60583;50.094;8.748;2023-08-17T12:16:47;100492.81;;;32.90;46.70
72558;BME280;60583;50.094;8.748;2023-08-17T12:19:16;100503.50;;;31.60;49.36
72558;BME280;60583;50.094;8.748;2023-08-17T12:21:45;100487.88;;;30.76;51.60
72558;BME280;60583;50.094;8.748;2023-08-17T12:24:11;100487.50;;;30.31;53.16
72558;BME280;60583;50.094;8.748;2023-08-17T12:26:46;100477.47;;;30.82;51.88
72558;BME280;60583;50.094;8.748;2023-08-17T12:29:12;100491.13;;;31.16;51.61
72558;BME280;60583;50.094;8.748;2023-08-17T12:31:38;100484.72;;;30.95;51.17
72558;BME280;60583;50.094;8.748;2023-08-17T12:34:04;100493.84;;;30.15;53.75
72558;BME280;60583;50.094;8.748;2023-08-17T12:36:32;100479.47;;;29.92;54.10
72558;BME280;60583;50.094;8.748;2023-08-17T12:38:58;100506.50;;;29.90;55.60
72558;BME280;60583;50.094;8.748;2023-08-17T12:41:23;100500.94;;;30.88;52.09
72558;BME280;60583;50.094;8.748;2023-08-17T12:43:49;100511.41;;;32.24;49.03